メインページ
METAR-TAF:

METAR-TAF

空港 :

Penn Yan Airport

Penn Yan, ニューヨーク, アメリカ合衆国

緯度: 42-38-35N, 経度: 077-02-58W, 海抜: 275m

現時点の気象観測

当レポートは13分前の06:14(UTC)に作成
無風
気温 6°C
湿度 93%
気圧 1015 hPa
視程: 3.2km
高度500ftの曇り

METAR: KPEO 040614Z AUTO 00000KT 2SM BR OVC005 06/05 A2998 RMK AO2 T00560050

時間: 02:27 (06:27 UTC)


TAF: 見つかりません

4,000以上の空港の気象観測と天気予報(METAR報とTAF報)

利用可能な観測所は地図上に黄色い丸と赤い丸で示す。

丸の上にカーソルを重ねると観測所名を参照できる。

次にクリックすると気象観測と天気予報を参照できる。

マップの切り替え:黒色「×」印の緑ボタンをクリックして拡大、「-」印の緑ボタンをクリックして縮小、緑色の三角印をクリックして隣りの地図に切り替え


METAR-TAF: